createdAt,value
2018-03-17T00:00:42.929Z,93547.69
2018-03-17T00:03:46.204Z,93544.70
2018-03-17T00:06:50.222Z,93539.59
2018-03-17T00:09:53.495Z,93529.03
2018-03-17T00:12:56.761Z,93522.94
2018-03-17T00:16:00.112Z,93520.47
2018-03-17T00:19:03.390Z,93524.59
2018-03-17T00:22:07.417Z,93522.66
2018-03-17T00:25:11.457Z,93518.62
2018-03-17T00:28:14.722Z,93512.95
2018-03-17T00:31:18.749Z,93511.87
2018-03-17T00:34:22.801Z,93514.41
2018-03-17T00:37:26.055Z,93509.58
2018-03-17T00:40:30.161Z,93503.16
2018-03-17T00:43:34.187Z,93505.80
2018-03-17T00:46:38.201Z,93511.97
2018-03-17T00:49:42.225Z,93511.20
2018-03-17T00:52:45.501Z,93509.84
2018-03-17T00:55:48.927Z,93503.28
2018-03-17T00:58:52.196Z,93494.58
2018-03-17T01:01:55.452Z,93496.58
2018-03-17T01:04:58.716Z,93495.92
2018-03-17T01:08:01.988Z,93480.48
2018-03-17T01:11:06.140Z,93474.85
2018-03-17T01:14:09.449Z,93468.53
2018-03-17T01:17:12.737Z,93463.45
2018-03-17T01:20:16.040Z,93457.20
2018-03-17T01:23:19.352Z,93462.23
2018-03-17T01:26:22.817Z,93461.73
2018-03-17T01:29:27.144Z,93462.63
2018-03-17T01:32:30.831Z,93459.19
2018-03-17T01:35:35.224Z,93457.27
2018-03-17T01:38:39.591Z,93446.94
2018-03-17T01:41:42.910Z,93444.91
2018-03-17T01:44:46.185Z,93440.59
2018-03-17T01:47:49.469Z,93431.84
2018-03-17T01:50:53.567Z,93432.93
2018-03-17T01:54:14.819Z,93426.56
2018-03-17T01:57:18.128Z,93414.47
2018-03-17T02:00:21.416Z,93402.59
2018-03-17T02:03:25.439Z,93401.98
2018-03-17T02:06:28.874Z,93403.41
2018-03-17T02:09:32.157Z,93401.95
2018-03-17T02:12:35.442Z,93398.48
2018-03-17T02:15:38.730Z,93392.58
2018-03-17T02:18:41.998Z,93387.08
2018-03-17T02:21:45.281Z,93381.37
2018-03-17T02:24:48.546Z,93374.20
2018-03-17T02:27:51.813Z,93377.48
2018-03-17T02:30:55.082Z,93377.86
2018-03-17T02:33:58.369Z,93379.02
2018-03-17T02:37:01.631Z,93375.75
2018-03-17T02:40:04.905Z,93372.05
2018-03-17T02:43:08.165Z,93374.59
2018-03-17T02:46:11.441Z,93372.93
2018-03-17T02:49:14.690Z,93373.39
2018-03-17T02:52:17.974Z,93376.89
2018-03-17T02:55:22.009Z,93368.31
2018-03-17T02:58:25.273Z,93368.55
2018-03-17T03:01:29.314Z,93368.31
2018-03-17T03:04:32.613Z,93358.41
2018-03-17T03:07:35.869Z,93359.16
2018-03-17T03:10:39.919Z,93355.63
2018-03-17T03:13:44.021Z,93354.39
2018-03-17T03:16:50.985Z,93348.54
2018-03-17T03:19:55.008Z,93350.94
2018-03-17T03:22:58.268Z,93345.47
2018-03-17T03:26:01.548Z,93342.20
2018-03-17T03:29:04.901Z,93338.84
2018-03-17T03:32:08.169Z,93327.83
2018-03-17T03:35:11.549Z,93323.97
2018-03-17T03:38:14.790Z,93320.93
2018-03-17T03:41:18.091Z,93307.30
2018-03-17T03:44:21.358Z,93310.08
2018-03-17T03:47:24.629Z,93305.11
2018-03-17T03:50:27.889Z,93303.65
2018-03-17T03:53:31.938Z,93301.45
2018-03-17T03:56:35.207Z,93300.45
2018-03-17T03:59:39.251Z,93298.14
2018-03-17T04:02:42.532Z,93290.67
2018-03-17T04:05:45.831Z,93283.81
2018-03-17T04:08:49.125Z,93281.81
2018-03-17T04:11:53.154Z,93286.90
2018-03-17T04:14:56.421Z,93291.05
2018-03-17T04:18:00.450Z,93288.94
2018-03-17T04:21:04.482Z,93291.75
2018-03-17T04:24:07.845Z,93287.39
2018-03-17T04:27:11.881Z,93281.35
2018-03-17T04:30:15.155Z,93284.10
2018-03-17T04:33:19.206Z,93280.92
2018-03-17T04:36:22.482Z,93279.33
2018-03-17T04:39:26.725Z,93277.80
2018-03-17T04:42:30.804Z,93277.56
2018-03-17T04:45:34.088Z,93271.63
2018-03-17T04:48:37.393Z,93271.51
2018-03-17T04:51:40.657Z,93271.34
2018-03-17T04:54:43.934Z,93268.84
2018-03-17T04:57:47.216Z,93265.74
2018-03-17T05:00:50.492Z,93260.07
2018-03-17T05:03:54.552Z,93264.36
2018-03-17T05:06:57.826Z,93266.64
2018-03-17T05:10:01.137Z,93264.89
2018-03-17T05:13:04.375Z,93262.38
2018-03-17T05:16:07.639Z,93251.17
2018-03-17T05:19:10.919Z,93258.61
2018-03-17T05:22:14.189Z,93256.20
2018-03-17T05:25:17.459Z,93255.46
2018-03-17T05:28:20.714Z,93258.33
2018-03-17T05:31:23.995Z,93249.05
2018-03-17T05:34:28.021Z,93248.69
2018-03-17T05:37:31.292Z,93242.53
2018-03-17T05:40:35.330Z,93239.30
2018-03-17T05:43:38.619Z,93239.07
2018-03-17T05:46:42.648Z,93238.72
2018-03-17T05:49:45.924Z,93234.34
2018-03-17T05:52:50.086Z,93225.92
2018-03-17T05:55:53.386Z,93228.19
2018-03-17T05:58:56.650Z,93223.19
2018-03-17T06:02:00.074Z,93220.53
2018-03-17T06:05:03.336Z,93219.57
2018-03-17T06:08:07.373Z,93214.79
2018-03-17T06:11:10.637Z,93209.33
2018-03-17T06:14:14.773Z,93215.30
2018-03-17T06:17:18.198Z,93214.34
2018-03-17T06:20:21.453Z,93204.88
2018-03-17T06:23:25.486Z,93199.48
2018-03-17T06:26:29.533Z,93201.06
2018-03-17T06:29:33.628Z,93193.36
2018-03-17T06:32:36.912Z,93188.84
2018-03-17T06:35:41.027Z,93181.67
2018-03-17T06:38:46.285Z,93182.05
2018-03-17T06:41:49.762Z,93177.32
2018-03-17T06:44:53.823Z,93174.58
2018-03-17T06:47:57.085Z,93174.44
2018-03-17T06:51:01.137Z,93167.42
2018-03-17T06:54:04.401Z,93169.39
2018-03-17T06:57:07.677Z,93167.63
2018-03-17T07:00:11.818Z,93165.25
2018-03-17T07:03:15.085Z,93163.17
2018-03-17T07:06:18.414Z,93161.36
2018-03-17T07:09:21.684Z,93164.03
2018-03-17T07:12:25.729Z,93166.48
2018-03-17T07:15:29.123Z,93162.76
2018-03-17T07:18:32.389Z,93159.17
2018-03-17T07:21:35.920Z,93159.89
2018-03-17T07:24:39.225Z,93149.27
2018-03-17T07:27:42.486Z,93139.61
2018-03-17T07:30:45.899Z,93139.31
2018-03-17T07:33:49.316Z,93131.84
2018-03-17T07:36:53.437Z,93136.36
2018-03-17T07:39:56.728Z,93135.11
2018-03-17T07:43:00.854Z,93130.14
2018-03-17T07:46:04.348Z,93126.54
2018-03-17T07:49:07.621Z,93133.48
2018-03-17T07:52:10.896Z,93125.72
2018-03-17T07:55:14.253Z,93119.58
2018-03-17T07:58:17.518Z,93112.86
2018-03-17T08:01:22.074Z,93105.08
2018-03-17T08:04:25.354Z,93111.86
2018-03-17T08:07:29.382Z,93108.80
2018-03-17T08:10:33.417Z,93110.25
2018-03-17T08:13:36.693Z,93106.84
2018-03-17T08:16:40.293Z,93101.86
2018-03-17T08:19:44.521Z,93104.96
2018-03-17T08:22:47.882Z,93099.80
2018-03-17T08:25:52.025Z,93104.08
2018-03-17T08:28:56.199Z,93096.92
2018-03-17T08:31:59.519Z,93097.60
2018-03-17T08:35:02.827Z,93098.24
2018-03-17T08:38:06.905Z,93098.16
2018-03-17T08:41:10.258Z,93087.85
2018-03-17T08:44:14.529Z,93082.36
2018-03-17T08:47:18.164Z,93081.58
2018-03-17T08:50:21.457Z,93084.16
2018-03-17T08:53:24.785Z,93093.70
2018-03-17T08:56:28.069Z,93094.55
2018-03-17T08:59:32.106Z,93095.86
2018-03-17T09:02:35.433Z,93089.19
2018-03-17T09:05:38.769Z,93088.02
2018-03-17T09:08:42.895Z,93085.15
2018-03-17T09:11:46.924Z,93080.24
2018-03-17T09:14:50.226Z,93082.36
2018-03-17T09:17:53.558Z,93080.65
2018-03-17T09:20:56.928Z,93081.93
2018-03-17T09:24:00.666Z,93080.70
2018-03-17T09:27:03.998Z,93078.59
2018-03-17T09:30:08.798Z,93068.20
2018-03-17T09:33:12.238Z,93063.53
2018-03-17T09:36:16.410Z,93057.83
2018-03-17T09:39:19.705Z,93058.06
2018-03-17T09:42:23.073Z,93058.17
2018-03-17T09:45:26.342Z,93051.50
2018-03-17T09:48:29.973Z,93057.87
2018-03-17T09:51:34.091Z,93045.64
2018-03-17T09:54:38.130Z,93046.40
2018-03-17T09:57:41.486Z,93042.34
2018-03-17T10:00:45.634Z,93048.56
2018-03-17T10:03:48.969Z,93046.67
2018-03-17T10:06:52.232Z,93049.48
2018-03-17T10:09:55.521Z,93048.16
2018-03-17T10:12:58.793Z,93042.29
2018-03-17T10:16:03.386Z,93036.84
2018-03-17T10:19:06.945Z,93033.23
2018-03-17T10:22:10.994Z,93035.77
2018-03-17T10:25:14.380Z,93028.05
2018-03-17T10:28:17.683Z,93023.70
2018-03-17T10:31:21.066Z,93011.43
2018-03-17T10:34:24.385Z,93013.25
2018-03-17T10:37:27.703Z,93004.67
2018-03-17T10:40:31.158Z,92998.44
2018-03-17T10:43:34.446Z,93002.34
2018-03-17T10:46:38.592Z,93004.34
2018-03-17T10:49:41.875Z,92995.17
2018-03-17T10:52:45.143Z,92992.92
2018-03-17T10:55:49.227Z,92990.37
2018-03-17T10:58:52.530Z,92989.22
2018-03-17T11:02:10.694Z,92988.63
2018-03-17T11:05:14.026Z,92986.58
2018-03-17T11:08:17.299Z,92979.73
2018-03-17T11:11:22.190Z,92979.06
2018-03-17T11:14:25.639Z,92987.94
2018-03-17T11:17:28.837Z,92997.59
2018-03-17T11:20:32.869Z,93005.78
2018-03-17T11:23:36.298Z,92990.14
2018-03-17T11:26:40.897Z,92991.77
2018-03-17T11:29:44.197Z,92990.02
2018-03-17T11:32:47.533Z,92987.55
2018-03-17T11:35:50.814Z,92988.45
2018-03-17T11:38:54.157Z,92989.59
2018-03-17T11:41:58.950Z,92985.39
2018-03-17T11:45:02.565Z,92978.93
2018-03-17T11:48:05.829Z,92973.34
2018-03-17T11:51:09.089Z,92977.08
2018-03-17T11:54:12.617Z,92978.22
2018-03-17T11:57:15.975Z,92972.61
2018-03-17T12:00:19.315Z,92962.64
2018-03-17T12:03:22.613Z,92962.11
2018-03-17T12:06:26.654Z,92955.45
2018-03-17T12:09:30.011Z,92957.33
2018-03-17T12:12:33.274Z,92950.10
2018-03-17T12:15:36.743Z,92948.77
2018-03-17T12:18:40.626Z,92948.83
2018-03-17T12:21:43.921Z,92950.22
2018-03-17T12:24:47.959Z,92946.85
2018-03-17T12:27:51.229Z,92942.31
2018-03-17T12:30:55.278Z,92946.95
2018-03-17T12:33:58.549Z,92944.16
2018-03-17T12:37:02.633Z,92950.13
2018-03-17T12:40:06.178Z,92946.13
2018-03-17T12:43:10.398Z,92945.05
2018-03-17T12:46:13.722Z,92945.17
2018-03-17T12:49:16.991Z,92940.16
2018-03-17T12:52:21.111Z,92938.41
2018-03-17T12:55:24.432Z,92931.78
2018-03-17T12:58:27.705Z,92925.86
2018-03-17T13:01:30.976Z,92926.02
2018-03-17T13:04:34.374Z,92921.79
2018-03-17T13:07:37.610Z,92917.59
2018-03-17T13:10:40.897Z,92923.83
2018-03-17T13:13:44.556Z,92914.48
2018-03-17T13:16:47.808Z,92919.03
2018-03-17T13:19:51.215Z,92918.73
2018-03-17T13:23:12.377Z,92911.66
2018-03-17T13:26:17.192Z,92926.38
2018-03-17T13:29:20.436Z,92932.14
2018-03-17T13:32:42.449Z,92924.82
2018-03-17T13:36:03.885Z,92916.22
2018-03-17T13:39:08.051Z,92933.90
2018-03-17T13:42:11.329Z,92913.94
2018-03-17T13:45:14.718Z,92912.28
2018-03-17T13:48:17.986Z,92917.29
2018-03-17T13:51:22.762Z,92915.04
2018-03-17T13:54:26.514Z,92908.91
2018-03-17T13:57:29.781Z,92911.81
2018-03-17T14:00:33.051Z,92917.17
2018-03-17T14:03:37.076Z,92913.19
2018-03-17T14:06:40.365Z,92915.75
2018-03-17T14:09:43.790Z,92910.27
2018-03-17T14:12:47.173Z,92914.28
2018-03-17T14:15:51.262Z,92917.42
2018-03-17T14:18:55.391Z,92921.88
2018-03-17T14:21:59.420Z,92921.38
2018-03-17T14:25:02.697Z,92918.11
2018-03-17T14:28:06.721Z,92907.70
2018-03-17T14:31:09.995Z,92914.46
2018-03-17T14:34:13.261Z,92912.09
2018-03-17T14:37:16.580Z,92902.63
2018-03-17T14:40:20.118Z,92899.17
2018-03-17T14:43:23.439Z,92907.09
2018-03-17T14:46:26.761Z,92918.60
2018-03-17T14:49:30.062Z,92908.62
2018-03-17T14:52:33.330Z,92909.25
2018-03-17T14:55:36.608Z,92916.33
2018-03-17T14:58:40.637Z,92911.94
2018-03-17T15:01:43.934Z,92911.91
2018-03-17T15:04:47.215Z,92908.82
2018-03-17T15:07:50.511Z,92908.05
2018-03-17T15:10:53.822Z,92911.52
2018-03-17T15:13:57.122Z,92910.57
2018-03-17T15:17:00.413Z,92909.00
2018-03-17T15:20:04.452Z,92909.42
2018-03-17T15:23:07.745Z,92911.85
2018-03-17T15:26:11.049Z,92910.76
2018-03-17T15:29:14.435Z,92909.34
2018-03-17T15:32:17.729Z,92911.03
2018-03-17T15:35:21.000Z,92915.95
2018-03-17T15:38:24.262Z,92925.08
2018-03-17T15:41:27.526Z,92919.01
2018-03-17T15:44:31.608Z,92921.17
2018-03-17T15:47:34.877Z,92918.05
2018-03-17T15:50:38.238Z,92919.02
2018-03-17T15:53:41.518Z,92910.27
2018-03-17T15:56:45.547Z,92912.13
2018-03-17T15:59:48.865Z,92914.68
2018-03-17T16:02:52.271Z,92914.16
2018-03-17T16:05:55.551Z,92915.70
2018-03-17T16:08:59.608Z,92922.17
2018-03-17T16:12:03.662Z,92903.15
2018-03-17T16:15:07.754Z,92913.42
2018-03-17T16:18:11.024Z,92921.22
2018-03-17T16:21:14.330Z,92928.98
2018-03-17T16:24:17.602Z,92922.03
2018-03-17T16:27:20.884Z,92926.61
2018-03-17T16:30:24.159Z,92924.33
2018-03-17T16:33:27.748Z,92923.41
2018-03-17T16:36:31.017Z,92929.84
2018-03-17T16:39:34.290Z,92935.70
2018-03-17T16:42:37.652Z,92939.47
2018-03-17T16:45:41.716Z,92942.41
2018-03-17T16:51:42.609Z,92936.73
2018-03-17T16:54:45.948Z,92939.09
2018-03-17T16:57:50.425Z,92944.70
2018-03-17T17:00:53.695Z,92935.87
2018-03-17T17:03:56.974Z,92936.20
2018-03-17T17:07:00.254Z,92943.81
2018-03-17T17:10:04.547Z,92944.60
2018-03-17T17:13:08.627Z,92950.17
2018-03-17T17:16:12.207Z,92947.81
2018-03-17T17:19:16.241Z,92950.55
2018-03-17T17:22:19.544Z,92950.87
2018-03-17T17:25:22.845Z,92954.49
2018-03-17T17:28:26.110Z,92962.80
2018-03-17T17:31:30.156Z,92972.72
2018-03-17T17:34:33.408Z,92968.31
2018-03-17T17:37:37.435Z,92977.92
2018-03-17T17:40:41.469Z,92978.20
2018-03-17T17:43:45.975Z,92977.58
2018-03-17T17:46:50.117Z,92976.11
2018-03-17T17:49:53.396Z,92990.74
2018-03-17T17:52:56.664Z,92991.61
2018-03-17T17:55:59.950Z,92985.70
2018-03-17T17:59:03.235Z,92976.84
2018-03-17T18:02:06.510Z,92988.77
2018-03-17T18:05:09.773Z,92977.00
2018-03-17T18:08:13.079Z,92982.09
2018-03-17T18:11:16.344Z,92994.86
2018-03-17T18:14:19.690Z,92982.72
2018-03-17T18:17:22.977Z,92987.70
2018-03-17T18:20:26.242Z,92982.62
2018-03-17T18:23:29.527Z,92993.05
2018-03-17T18:26:32.786Z,92986.01
2018-03-17T18:29:36.069Z,92996.52
2018-03-17T18:32:39.349Z,92993.03
2018-03-17T18:35:43.425Z,92992.10
2018-03-17T18:38:46.705Z,92992.38
2018-03-17T18:41:49.990Z,93002.68
2018-03-17T18:44:53.259Z,92997.27
2018-03-17T18:47:57.380Z,93001.35
2018-03-17T18:51:02.259Z,92998.73
2018-03-17T18:54:05.546Z,93008.81
2018-03-17T18:57:08.921Z,93012.74
2018-03-17T19:00:14.082Z,93001.55
2018-03-17T19:03:17.392Z,93013.05
2018-03-17T19:06:20.673Z,93019.81
2018-03-17T19:09:24.840Z,93012.48
2018-03-17T19:12:28.302Z,93016.23
2018-03-17T19:15:31.596Z,93013.36
2018-03-17T19:18:34.922Z,93014.81
2018-03-17T19:21:38.198Z,93020.23
2018-03-17T19:24:41.494Z,93023.05
2018-03-17T19:27:44.789Z,93019.77
2018-03-17T19:30:48.196Z,93015.38
2018-03-17T19:33:51.733Z,93033.33
2018-03-17T19:36:55.102Z,93024.59
2018-03-17T19:39:58.496Z,93018.68
2018-03-17T19:43:01.895Z,93023.27
2018-03-17T19:46:06.108Z,93029.53
2018-03-17T19:49:10.257Z,93025.38
2018-03-17T19:52:23.049Z,93025.50
2018-03-17T19:55:27.189Z,93028.57
2018-03-17T19:58:30.523Z,93026.11
2018-03-17T20:01:33.880Z,93016.84
2018-03-17T20:04:37.179Z,93028.68
2018-03-17T20:07:40.563Z,93026.53
2018-03-17T20:10:44.597Z,93030.03
2018-03-17T20:13:47.907Z,93024.34
2018-03-17T20:16:51.278Z,93022.64
2018-03-17T20:19:54.857Z,93029.48
2018-03-17T20:22:59.625Z,93026.44
2018-03-17T20:26:02.922Z,93028.05
2018-03-17T20:29:06.942Z,93027.97
2018-03-17T20:32:10.374Z,93025.18
2018-03-17T20:35:13.645Z,93027.59
2018-03-17T20:38:16.940Z,93033.35
2018-03-17T20:41:20.359Z,93034.05
2018-03-17T20:44:24.239Z,93030.38
2018-03-17T20:47:27.642Z,93031.84
2018-03-17T20:50:31.801Z,93034.45
2018-03-17T20:53:35.170Z,93038.31
2018-03-17T20:56:38.454Z,93035.34
2018-03-17T20:59:41.745Z,93033.22
2018-03-17T21:02:45.804Z,93032.69
2018-03-17T21:05:49.159Z,93032.94
2018-03-17T21:08:53.690Z,93045.78
2018-03-17T21:11:56.962Z,93041.98
2018-03-17T21:15:00.282Z,93034.39
2018-03-17T21:18:04.313Z,93040.98
2018-03-17T21:21:07.597Z,93040.34
2018-03-17T21:24:11.708Z,93039.88
2018-03-17T21:27:14.987Z,93036.12
2018-03-17T21:30:19.850Z,93041.59
2018-03-17T21:33:23.141Z,93040.86
2018-03-17T21:36:27.343Z,93039.27
2018-03-17T21:39:31.393Z,93039.23
2018-03-17T21:42:34.715Z,93036.33
2018-03-17T21:45:37.971Z,93037.58
2018-03-17T21:48:41.265Z,93027.92
2018-03-17T21:51:45.587Z,93040.27
2018-03-17T21:54:48.879Z,93039.98
2018-03-17T21:57:52.918Z,93035.92
2018-03-17T22:00:56.215Z,93045.73
2018-03-17T22:03:59.507Z,93039.84
2018-03-17T22:07:02.999Z,93040.66
2018-03-17T22:10:07.043Z,93032.91
2018-03-17T22:13:10.616Z,93038.97
2018-03-17T22:16:14.031Z,93044.56
2018-03-17T22:19:17.306Z,93045.72
2018-03-17T22:22:21.366Z,93053.95
2018-03-17T22:25:24.646Z,93049.70
2018-03-17T22:28:27.919Z,93056.17
2018-03-17T22:31:31.966Z,93045.81
2018-03-17T22:34:35.238Z,93053.78
2018-03-17T22:37:38.535Z,93051.27
2018-03-17T22:40:42.575Z,93051.33
2018-03-17T22:43:46.043Z,93053.55
2018-03-17T22:46:50.168Z,93051.55
2018-03-17T22:49:54.378Z,93056.09
2018-03-17T22:52:58.569Z,93063.36
2018-03-17T22:56:01.842Z,93052.88
2018-03-17T22:59:05.115Z,93052.19
2018-03-17T23:02:08.404Z,93056.47
2018-03-17T23:05:11.701Z,93056.92
2018-03-17T23:08:14.995Z,93050.78
2018-03-17T23:11:18.288Z,93047.11
2018-03-17T23:14:22.317Z,93049.73
2018-03-17T23:17:25.616Z,93055.70
2018-03-17T23:20:28.976Z,93052.86
2018-03-17T23:23:32.311Z,93051.11
2018-03-17T23:26:35.593Z,93055.17
2018-03-17T23:29:39.893Z,93052.02
2018-03-17T23:32:43.933Z,93056.94
2018-03-17T23:35:47.345Z,93052.34
2018-03-17T23:38:50.636Z,93064.22
2018-03-17T23:41:54.031Z,93066.14
2018-03-17T23:44:57.545Z,93071.64
2018-03-17T23:48:00.830Z,93060.05
2018-03-17T23:51:04.418Z,93072.64
2018-03-17T23:54:08.466Z,93069.02
2018-03-17T23:57:11.765Z,93086.92
